Time;durP1;ratioP1;P1;durP2;ratioP2;P2;SDS_P1;SDS_P2;PMS_P1;PMS_P2;Temp;Humidity;BMP_temperature;BMP_pressure;BME280_temperature;BME280_humidity;BME280_pressure;Samples;Min_cycle;Max_cycle;Signal;HPM_P1;HPM_P2
2021/06/21 11:56:21;;;;;;;;;14.60;11.20;;;;;37.00;31.89;100912.13;5643606;23;8904;-77
2021/06/21 11:58:51;;;;;;;;;14.60;11.00;;;;;37.16;31.51;100904.13;4899019;29;9592;-77
2021/06/21 12:01:59;;;;;;;;;6.80;6.60;;;;;36.93;30.04;100903.16;4886766;29;9597;-76
2021/06/21 12:04:54;;;;;;;;;8.20;7.40;;;;;37.05;29.79;100899.09;4910132;29;8887;-79
2021/06/21 12:07:50;;;;;;;;;11.80;8.40;;;;;36.74;29.94;100891.97;4897972;29;8911;-79
2021/06/21 12:10:46;;;;;;;;;9.00;8.60;;;;;36.80;30.12;100897.75;4896616;29;8967;-76
2021/06/21 12:13:42;;;;;;;;;10.00;8.00;;;;;36.67;29.05;100895.28;4891521;29;8866;-77
2021/06/21 12:16:43;;;;;;;;;11.80;11.60;;;;;36.45;30.66;100890.09;4895086;29;8870;-78
2021/06/21 12:19:38;;;;;;;;;9.20;8.80;;;;;36.41;30.71;100883.75;4905290;29;8905;-78
2021/06/21 12:22:35;;;;;;;;;8.40;7.40;;;;;36.73;29.33;100875.97;4908142;29;8876;-76
2021/06/21 12:25:40;;;;;;;;;14.00;11.60;;;;;37.15;29.60;100880.28;4907902;29;8894;-78
2021/06/21 12:28:36;;;;;;;;;9.80;9.80;;;;;37.40;30.01;100874.97;4915642;29;8848;-77
2021/06/21 12:31:35;;;;;;;;;9.80;9.40;;;;;37.33;28.67;100869.69;4902533;29;8864;-77
2021/06/21 12:34:48;;;;;;;;;10.60;9.20;;;;;37.60;27.42;100874.84;4915800;29;9003;-78
2021/06/21 12:37:44;;;;;;;;;9.40;6.80;;;;;37.13;27.93;100871.38;4915767;29;8906;-75
2021/06/21 12:40:40;;;;;;;;;5.60;5.60;;;;;37.32;27.47;100871.00;4915289;29;8890;-78
2021/06/21 12:43:35;;;;;;;;;8.80;8.80;;;;;37.62;28.61;100872.22;4903326;29;8915;-77
2021/06/21 12:46:16;;;;;;;;;6.20;6.20;;;;;37.57;28.80;100872.97;4916579;29;8864;-75
2021/06/21 12:49:18;;;;;;;;;9.40;9.20;;;;;37.16;29.12;100876.09;4903031;29;8861;-75
2021/06/21 12:52:14;;;;;;;;;18.00;16.80;;;;;37.42;30.20;100870.28;4900129;29;8848;-75
2021/06/21 12:55:13;;;;;;;;;24.80;23.80;;;;;37.08;28.73;100871.31;4919732;29;8864;-75
2021/06/21 12:58:08;;;;;;;;;15.60;14.60;;;;;37.03;29.99;100869.94;4919962;29;8934;-76
2021/06/21 13:01:04;;;;;;;;;19.80;16.80;;;;;37.14;28.21;100875.03;4918354;29;8887;-77
2021/06/21 13:03:45;;;;;;;;;8.80;7.40;;;;;37.69;26.41;100874.63;4905918;29;8884;-76
2021/06/21 13:06:43;;;;;;;;;4.20;4.20;;;;;37.44;26.65;100872.66;4906771;29;8895;-75
2021/06/21 13:09:48;;;;;;;;;6.00;6.00;;;;;37.30;26.80;100872.28;4920248;29;8880;-74
2021/06/21 13:12:52;;;;;;;;;9.20;8.00;;;;;37.64;25.97;100871.72;4918749;29;8884;-76
2021/06/21 13:15:47;;;;;;;;;8.20;6.00;;;;;37.68;27.23;100869.38;4913706;29;8860;-78
2021/06/21 13:18:52;;;;;;;;;7.20;6.20;;;;;37.68;25.84;100869.38;4908383;29;8886;-75
2021/06/21 13:21:41;;;;;;;;;10.60;6.00;;;;;37.61;26.69;100882.19;4892575;29;8894;-74
2021/06/21 13:24:33;;;;;;;;;9.40;9.40;;;;;37.78;26.48;100867.88;4903590;29;8934;-76
2021/06/21 13:27:02;;;;;;;;;10.80;10.80;;;;;37.18;28.01;100870.59;4898663;29;8899;-76
2021/06/21 13:29:31;;;;;;;;;11.80;11.60;;;;;36.65;29.65;100874.81;4907789;29;8883;-76
2021/06/21 13:32:06;;;;;;;;;13.00;13.00;;;;;37.23;31.14;100881.38;4915664;29;8879;-75
2021/06/21 13:35:14;;;;;;;;;18.00;15.80;;;;;37.49;28.94;100878.44;4918839;29;9602;-75
2021/06/21 13:38:16;;;;;;;;;13.00;13.00;;;;;37.45;28.97;100869.25;4896866;29;8882;-75
2021/06/21 13:40:45;;;;;;;;;25.20;23.40;;;;;36.95;27.77;100865.97;4919945;29;8884;-75
2021/06/21 13:43:30;;;;;;;;;14.40;14.40;;;;;36.48;27.88;100873.88;4919453;29;8867;-79
2021/06/21 13:46:25;;;;;;;;;17.20;17.00;;;;;36.63;28.58;100863.03;4919050;29;8884;-76
2021/06/21 13:49:24;;;;;;;;;12.40;12.00;;;;;36.28;28.00;100871.81;4918638;29;9602;-75
2021/06/21 13:52:07;;;;;;;;;10.80;10.20;;;;;35.98;28.06;100861.75;4902200;29;8982;-75
2021/06/21 13:54:56;;;;;;;;;20.00;20.00;;;;;36.01;28.69;100870.16;4918349;29;8868;-74
2021/06/21 13:57:36;;;;;;;;;17.40;16.80;;;;;36.07;27.74;100865.28;4901204;29;8867;-74
2021/06/21 14:00:07;;;;;;;;;15.60;15.40;;;;;36.00;28.23;100868.59;4902566;29;8909;-74
2021/06/21 14:02:38;;;;;;;;;20.20;20.20;;;;;35.68;28.63;100863.94;4919665;29;8884;-74
2021/06/21 14:05:34;;;;;;;;;19.80;19.80;;;;;35.96;28.56;100865.13;4918534;29;8875;-75
2021/06/21 14:08:31;;;;;;;;;14.20;14.20;;;;;36.09;28.09;100870.53;4918428;29;8958;-75
2021/06/21 14:11:04;;;;;;;;;10.00;10.00;;;;;35.91;29.52;100871.63;4919175;29;8864;-75
2021/06/21 14:13:35;;;;;;;;;6.80;6.80;;;;;36.08;28.49;100872.59;4911594;29;8863;-77
2021/06/21 14:16:37;;;;;;;;;15.00;14.00;;;;;35.84;29.82;100875.69;4888762;29;8879;-76
2021/06/21 14:19:32;;;;;;;;;8.80;8.80;;;;;35.81;28.95;100868.06;4899499;29;8870;-77
2021/06/21 14:22:28;;;;;;;;;18.40;17.40;;;;;35.38;30.40;100870.56;4898637;29;8877;-76
2021/06/21 14:25:23;;;;;;;;;12.00;12.00;;;;;34.88;30.27;100866.81;4899252;29;8885;-76
2021/06/21 14:27:52;;;;;;;;;13.60;13.60;;;;;34.65;31.52;100865.66;4900091;29;8882;-76
2021/06/21 14:30:41;;;;;;;;;10.40;10.40;;;;;34.37;31.91;100864.31;4904065;29;8915;-75
2021/06/21 14:33:09;;;;;;;;;15.20;15.20;;;;;34.29;32.57;100870.44;4909300;29;8915;-76
2021/06/21 14:36:06;;;;;;;;;20.00;20.00;;;;;33.89;30.91;100856.59;4905178;29;8952;-75
2021/06/21 14:39:03;;;;;;;;;5.60;5.60;;;;;33.76;30.95;100856.00;4916538;29;8963;-77
2021/06/21 14:41:32;;;;;;;;;22.20;22.20;;;;;33.82;31.32;100854.06;4908862;29;9582;-76
2021/06/21 14:44:04;;;;;;;;;22.60;22.20;;;;;33.82;31.70;100844.66;4912938;29;8859;-76
2021/06/21 14:46:32;;;;;;;;;34.60;31.40;;;;;33.83;32.00;100846.25;4883223;29;8855;-76
2021/06/21 14:49:00;;;;;;;;;6.60;6.60;;;;;33.53;32.51;100845.31;4917231;29;8860;-76
2021/06/21 14:51:56;;;;;;;;;34.80;31.80;;;;;33.41;33.20;100839.31;4891866;29;8864;-76
2021/06/21 14:54:24;;;;;;;;;42.60;34.40;;;;;33.64;32.95;100842.69;4910839;29;8951;-76
2021/06/21 14:57:05;;;;;;;;;34.60;31.60;;;;;33.24;32.91;100840.19;4886071;29;8922;-77
2021/06/21 15:00:07;;;;;;;;;38.00;33.80;;;;;33.27;33.14;100840.00;4917337;29;8868;-76
2021/06/21 15:02:35;;;;;;;;;27.20;26.60;;;;;33.17;33.01;100844.19;4918121;29;8999;-77
2021/06/21 15:05:05;;;;;;;;;27.60;27.40;;;;;32.89;34.28;100850.03;4918313;29;8848;-77
2021/06/21 15:07:43;;;;;;;;;19.60;19.60;;;;;32.81;33.98;100845.09;4897350;29;8888;-76
2021/06/21 15:10:19;;;;;;;;;9.60;9.60;;;;;32.65;33.07;100840.50;4902049;29;8907;-77
2021/06/21 15:12:50;;;;;;;;;14.40;14.40;;;;;32.63;33.82;100841.00;4917851;29;8946;-77
2021/06/21 15:15:35;;;;;;;;;4.20;4.20;;;;;32.57;33.72;100842.91;4916905;29;8899;-76
2021/06/21 15:18:04;;;;;;;;;3.80;3.80;;;;;32.44;33.98;100833.75;4917936;29;8868;-77
2021/06/21 15:21:00;;;;;;;;;1.40;1.40;;;;;32.47;33.65;100837.69;4905059;29;8894;-77
2021/06/21 15:23:56;;;;;;;;;4.00;4.00;;;;;32.55;34.67;100842.63;4917155;29;8888;-77
2021/06/21 15:26:53;;;;;;;;;2.00;2.00;;;;;32.48;33.66;100840.06;4904356;29;8895;-78
2021/06/21 15:29:49;;;;;;;;;3.00;3.00;;;;;32.58;33.79;100840.84;4916350;29;8876;-76
2021/06/21 15:32:31;;;;;;;;;3.00;3.00;;;;;32.53;35.06;100847.25;4898323;29;8891;-78
2021/06/21 15:34:58;;;;;;;;;4.00;4.00;;;;;32.59;33.99;100854.72;4882501;29;8859;-80
2021/06/21 15:37:55;;;;;;;;;3.00;3.00;;;;;32.50;34.09;100853.91;4907166;29;8864;-77
2021/06/21 15:40:26;;;;;;;;;4.40;4.40;;;;;32.43;35.09;100845.66;4917703;29;8963;-77
2021/06/21 15:43:09;;;;;;;;;4.00;4.00;;;;;32.23;35.64;100851.84;4917689;29;8864;-77
2021/06/21 15:46:05;;;;;;;;;2.60;2.60;;;;;32.22;36.16;100848.19;4915499;29;8860;-77
2021/06/21 15:48:36;;;;;;;;;2.00;2.00;;;;;32.16;35.74;100840.72;4900016;29;9047;-77
2021/06/21 15:51:07;;;;;;;;;5.60;4.00;;;;;32.19;35.71;100848.34;4917580;29;8872;-77
2021/06/21 15:53:56;;;;;;;;;7.80;7.80;;;;;32.25;35.02;100849.28;4916689;29;8992;-78
2021/06/21 15:56:52;;;;;;;;;3.20;3.20;;;;;32.12;35.50;100849.44;4902865;29;8895;-78
2021/06/21 15:59:20;;;;;;;;;5.60;5.20;;;;;32.24;36.23;100857.09;4899906;29;8864;-79
2021/06/21 16:02:16;;;;;;;;;6.40;6.40;;;;;31.83;37.21;100861.38;4915787;29;9019;-77
2021/06/21 16:04:44;;;;;;;;;4.00;3.60;;;;;31.90;37.17;100858.19;4915907;29;8868;-78
2021/06/21 16:07:13;;;;;;;;;2.80;2.80;;;;;31.88;37.78;100860.72;4916333;29;8900;-78
2021/06/21 16:09:41;;;;;;;;;3.40;3.40;;;;;32.00;38.02;100859.78;4916469;29;8882;-78
2021/06/21 16:12:12;;;;;;;;;2.80;2.80;;;;;31.98;38.26;100855.81;4916069;29;8856;-77
2021/06/21 16:14:40;;;;;;;;;4.60;4.60;;;;;31.79;38.51;100850.06;4911766;29;8860;-76
2021/06/21 16:17:09;;;;;;;;;1.00;1.00;;;;;31.87;38.23;100849.75;4900390;29;8884;-77
2021/06/21 16:19:40;;;;;;;;;2.00;2.00;;;;;31.87;38.83;100855.47;4917173;29;8864;-77
2021/06/21 16:22:08;;;;;;;;;4.60;4.60;;;;;31.86;38.84;100853.91;4900382;29;8884;-76
2021/06/21 16:24:37;;;;;;;;;2.00;2.00;;;;;31.67;39.82;100848.13;4916955;29;8978;-76
2021/06/21 16:27:06;;;;;;;;;4.80;4.80;;;;;31.65;39.09;100844.13;4900984;29;8885;-78
2021/06/21 16:29:34;;;;;;;;;1.60;1.60;;;;;31.64;40.04;100846.19;4898044;29;8893;-77
2021/06/21 16:32:02;;;;;;;;;3.80;3.80;;;;;31.49;40.51;100842.34;4899384;29;8891;-77
2021/06/21 16:34:58;;;;;;;;;3.20;3.20;;;;;31.51;41.15;100839.81;4916004;29;8876;-77
2021/06/21 16:37:59;;;;;;;;;3.00;3.00;;;;;31.29;41.82;100845.66;4902782;29;8924;-77
2021/06/21 16:40:30;;;;;;;;;3.00;3.00;;;;;31.24;42.25;100843.41;4902193;29;8871;-77
2021/06/21 16:43:00;;;;;;;;;2.00;2.00;;;;;31.25;41.89;100840.06;4898305;29;8863;-77
2021/06/21 16:45:29;;;;;;;;;3.60;3.60;;;;;31.09;42.73;100837.44;4896706;29;8851;-77
2021/06/21 16:47:57;;;;;;;;;2.80;2.80;;;;;31.13;42.33;100829.53;4896963;29;8905;-77
2021/06/21 16:50:28;;;;;;;;;3.00;3.00;;;;;31.10;42.51;100829.66;4896777;29;8935;-77
2021/06/21 16:52:56;;;;;;;;;3.40;3.40;;;;;30.97;41.92;100832.59;4898079;29;8959;-77
2021/06/21 16:55:27;;;;;;;;;5.00;5.00;;;;;30.94;42.60;100837.22;4881476;29;8878;-76
2021/06/21 16:57:55;;;;;;;;;3.80;3.40;;;;;30.84;41.67;100837.63;4905396;29;8869;-77
2021/06/21 17:00:26;;;;;;;;;2.20;2.20;;;;;30.77;42.43;100835.06;4916845;29;8895;-76
2021/06/21 17:03:15;;;;;;;;;6.60;5.80;;;;;30.81;41.98;100832.84;4915756;29;8967;-77
2021/06/21 17:05:57;;;;;;;;;11.20;10.60;;;;;30.70;41.79;100834.06;4900396;29;8875;-76
2021/06/21 17:08:29;;;;;;;;;44.40;36.40;;;;;30.58;41.30;100834.91;4912884;29;8889;-77
2021/06/21 17:10:57;;;;;;;;;40.80;35.80;;;;;30.69;41.57;100835.34;4896196;29;8995;-77
2021/06/21 17:13:26;;;;;;;;;40.40;35.20;;;;;30.63;41.95;100839.22;4907468;29;8870;-77
2021/06/21 17:15:54;;;;;;;;;39.40;33.60;;;;;30.51;42.16;100832.31;4912260;29;8872;-77
2021/06/21 17:18:48;;;;;;;;;40.20;33.80;;;;;30.62;41.91;100831.94;4914040;29;8868;-77
2021/06/21 17:21:19;;;;;;;;;11.20;10.20;;;;;30.47;41.28;100825.97;4894475;29;8861;-77
2021/06/21 17:23:48;;;;;;;;;47.60;38.60;;;;;30.47;42.43;100831.69;4915022;29;8888;-77
2021/06/21 17:26:17;;;;;;;;;30.80;29.80;;;;;30.38;42.24;100831.63;4911421;29;8864;-77
2021/06/21 17:28:44;;;;;;;;;17.00;15.40;;;;;30.26;42.33;100832.47;4897940;29;8865;-77
2021/06/21 17:31:14;;;;;;;;;10.80;10.80;;;;;30.30;42.15;100833.16;4916228;29;8869;-77
2021/06/21 17:33:42;;;;;;;;;11.60;11.20;;;;;30.29;42.53;100828.69;4911668;29;8860;-77
2021/06/21 17:36:37;;;;;;;;;9.20;9.20;;;;;30.29;42.99;100828.69;4899664;29;8864;-77
2021/06/21 17:39:33;;;;;;;;;8.80;8.80;;;;;30.26;42.68;100826.75;4915954;29;8864;-77
2021/06/21 17:42:29;;;;;;;;;11.40;10.40;;;;;30.22;43.24;100824.06;4906669;29;8962;-77
2021/06/21 17:45:25;;;;;;;;;6.00;6.00;;;;;30.13;43.16;100819.03;4918356;29;8868;-77
2021/06/21 17:48:21;;;;;;;;;2.40;2.40;;;;;30.10;43.70;100824.91;4918745;29;8987;-77
2021/06/21 17:51:16;;;;;;;;;8.80;8.80;;;;;30.06;44.17;100830.72;4917957;29;8995;-78
2021/06/21 17:54:12;;;;;;;;;6.60;6.60;;;;;29.96;44.83;100819.66;4918593;29;8900;-77
2021/06/21 17:56:41;;;;;;;;;8.00;8.00;;;;;29.95;45.84;100816.03;4918585;29;8891;-77
2021/06/21 17:59:08;;;;;;;;;6.60;6.60;;;;;29.92;45.54;100819.03;4919659;29;8939;-78
2021/06/21 18:01:39;;;;;;;;;10.80;8.20;;;;;29.79;46.41;100819.06;4918501;29;9641;-77
2021/06/21 18:04:07;;;;;;;;;5.20;5.20;;;;;29.75;46.10;100826.91;4919348;29;8927;-77
2021/06/21 18:07:03;;;;;;;;;7.00;7.00;;;;;29.64;47.17;100827.31;4918296;29;8947;-77
2021/06/21 18:09:58;;;;;;;;;10.00;9.00;;;;;29.61;46.53;100829.03;4916072;29;8884;-77
2021/06/21 18:12:26;;;;;;;;;9.00;9.00;;;;;29.58;46.51;100835.63;4886828;29;8903;-77
2021/06/21 18:14:54;;;;;;;;;7.00;7.00;;;;;29.46;47.03;100827.88;4899569;29;8864;-78
2021/06/21 18:17:22;;;;;;;;;5.80;4.80;;;;;29.42;46.59;100830.03;4904466;29;8876;-78
2021/06/21 18:19:51;;;;;;;;;6.60;6.60;;;;;29.41;46.75;100830.50;4896561;29;8934;-77
2021/06/21 18:22:19;;;;;;;;;9.60;7.80;;;;;29.31;47.22;100821.88;4917472;29;9673;-75
2021/06/21 18:24:47;;;;;;;;;7.00;7.00;;;;;29.30;47.27;100819.47;4912083;29;8870;-81
2021/06/21 18:27:17;;;;;;;;;5.20;5.20;;;;;29.17;47.02;100815.84;4893944;29;8895;-76
2021/06/21 18:29:45;;;;;;;;;10.20;9.20;;;;;29.11;48.34;100811.97;4893694;29;8880;-77
2021/06/21 18:32:13;;;;;;;;;6.20;6.20;;;;;29.06;48.00;100811.28;4885763;29;8874;-78
2021/06/21 18:34:54;;;;;;;;;6.60;6.60;;;;;29.06;47.90;100802.75;4893208;29;8880;-78
2021/06/21 18:37:50;;;;;;;;;6.20;6.20;;;;;28.95;47.50;100799.44;4917996;29;8874;-78
2021/06/21 18:40:43;;;;;;;;;6.80;6.80;;;;;28.89;47.20;100801.22;4918457;29;9618;-78
2021/06/21 18:43:38;;;;;;;;;4.40;4.40;;;;;28.84;47.41;100781.09;4916317;29;8849;-77
2021/06/21 18:46:09;;;;;;;;;6.00;6.00;;;;;28.77;46.62;100787.78;4909741;29;8938;-76
2021/06/21 18:48:39;;;;;;;;;4.80;4.80;;;;;28.87;47.21;100792.34;4909978;29;8860;-77
2021/06/21 18:51:07;;;;;;;;;2.00;2.00;;;;;28.85;46.79;100789.16;4886450;29;8895;-77
2021/06/21 18:54:02;;;;;;;;;6.80;6.80;;;;;28.73;46.35;100781.41;4899070;29;8967;-77
2021/06/21 18:57:00;;;;;;;;;5.40;5.40;;;;;28.78;46.77;100786.53;4911014;29;8864;-77
2021/06/21 18:59:55;;;;;;;;;6.40;6.40;;;;;28.73;46.24;100775.72;4917048;29;8888;-77
2021/06/21 19:02:51;;;;;;;;;6.00;5.80;;;;;28.66;47.29;100770.25;4903916;29;9645;-77
2021/06/21 19:05:19;;;;;;;;;7.40;7.40;;;;;28.66;47.34;100770.25;4918025;29;8864;-78
2021/06/21 19:08:15;;;;;;;;;9.00;9.00;;;;;28.55;49.34;100767.75;4907332;29;9569;-78
2021/06/21 19:10:45;;;;;;;;;7.80;7.80;;;;;28.44;48.09;100770.88;4917124;29;8890;-78
2021/06/21 19:13:40;;;;;;;;;8.40;8.40;;;;;28.51;49.68;100767.81;4917070;29;8860;-77
2021/06/21 19:16:36;;;;;;;;;8.80;8.80;;;;;28.36;49.09;100775.19;4916847;29;8876;-77
2021/06/21 19:19:31;;;;;;;;;7.40;7.40;;;;;28.29;48.41;100760.34;4916282;29;8880;-77
2021/06/21 19:22:00;;;;;;;;;5.40;5.40;;;;;28.39;49.22;100764.97;4918041;29;8863;-78
2021/06/21 19:24:55;;;;;;;;;5.60;5.60;;;;;28.15;49.30;100753.06;4916979;29;9676;-77
2021/06/21 19:27:52;;;;;;;;;6.60;6.60;;;;;28.23;49.10;100760.13;4916891;29;9002;-77
2021/06/21 19:30:47;;;;;;;;;6.60;5.40;;;;;28.15;49.81;100751.03;4916820;29;8994;-77
2021/06/21 19:33:45;;;;;;;;;8.80;6.80;;;;;28.17;50.33;100748.53;4904907;29;9676;-77
2021/06/21 19:36:40;;;;;;;;;6.00;3.40;;;;;28.03;49.82;100745.28;4915605;29;8884;-77
2021/06/21 19:39:36;;;;;;;;;5.40;5.40;;;;;28.08;50.62;100747.59;4916629;29;8939;-78
2021/06/21 19:42:04;;;;;;;;;4.20;4.20;;;;;28.05;50.74;100748.47;4916669;29;8856;-77
2021/06/21 19:45:00;;;;;;;;;4.80;4.80;;;;;27.85;50.72;100734.44;4916132;29;8883;-77
2021/06/21 19:47:57;;;;;;;;;4.60;4.60;;;;;27.95;50.63;100733.31;4916728;29;8864;-78
2021/06/21 19:50:53;;;;;;;;;3.80;3.80;;;;;27.94;50.94;100728.91;4903942;29;8872;-78
2021/06/21 19:53:48;;;;;;;;;5.00;5.00;;;;;27.87;50.96;100729.91;4916223;29;9641;-78
2021/06/21 19:56:44;;;;;;;;;3.00;3.00;;;;;27.78;51.33;100731.78;4903751;29;8853;-78
2021/06/21 19:59:39;;;;;;;;;4.20;4.20;;;;;27.68;51.28;100722.31;4885124;29;8851;-77
2021/06/21 20:02:35;;;;;;;;;3.40;3.40;;;;;27.62;51.71;100726.94;4897117;29;8962;-77
2021/06/21 20:05:30;;;;;;;;;3.80;3.80;;;;;27.70;51.70;100723.47;4897451;29;8877;-77
2021/06/21 20:08:29;;;;;;;;;5.20;5.20;;;;;27.72;51.92;100719.38;4897402;29;8854;-77
2021/06/21 20:11:26;;;;;;;;;4.00;4.00;;;;;27.60;51.44;100723.72;4896512;29;9689;-77
2021/06/21 20:14:22;;;;;;;;;3.00;3.00;;;;;27.62;51.21;100715.56;4884779;29;8870;-77
2021/06/21 20:17:17;;;;;;;;;5.00;5.00;;;;;27.76;51.71;100709.53;4916099;29;8856;-77
2021/06/21 20:20:17;;;;;;;;;0.00;0.00;;;;;27.52;50.83;100706.06;4916183;29;8891;-77
2021/06/21 20:23:13;;;;;;;;;3.00;3.00;;;;;27.67;50.99;100712.97;4915346;29;8871;-78
2021/06/21 20:26:09;;;;;;;;;2.60;2.60;;;;;27.57;50.91;100704.75;4915578;29;8960;-77
2021/06/21 20:29:05;;;;;;;;;2.00;2.00;;;;;27.57;49.79;100707.56;4915950;29;8845;-77
2021/06/21 20:32:01;;;;;;;;;4.80;4.80;;;;;27.62;49.98;100707.03;4915861;29;8986;-77
2021/06/21 20:35:03;;;;;;;;;5.60;5.60;;;;;27.65;49.50;100711.81;4903096;29;8860;-77
2021/06/21 20:38:03;;;;;;;;;3.60;3.60;;;;;27.64;49.83;100702.50;4904191;29;8864;-78
2021/06/21 20:41:01;;;;;;;;;4.20;4.20;;;;;27.58;49.17;100707.13;4915119;29;9694;-76
2021/06/21 20:43:56;;;;;;;;;2.20;2.20;;;;;27.66;48.44;100705.69;4916216;29;8914;-77
2021/06/21 20:46:52;;;;;;;;;3.60;3.60;;;;;27.68;48.17;100700.41;4915333;29;8934;-77
2021/06/21 20:49:49;;;;;;;;;4.60;4.60;;;;;27.68;47.97;100703.25;4915774;29;8902;-76
2021/06/21 20:52:45;;;;;;;;;13.40;13.40;;;;;27.70;47.15;100702.78;4916195;29;8848;-76
2021/06/21 20:55:41;;;;;;;;;5.60;5.60;;;;;27.86;47.63;100702.72;4915555;29;8852;-77
2021/06/21 20:58:36;;;;;;;;;9.60;9.40;;;;;27.85;46.82;100700.34;4915629;29;9680;-78
2021/06/21 21:01:32;;;;;;;;;22.00;22.00;;;;;27.83;47.29;100714.19;4916764;29;9657;-77
2021/06/21 21:04:27;;;;;;;;;31.40;29.00;;;;;27.86;46.55;100711.25;4915768;29;8887;-77
2021/06/21 21:07:23;;;;;;;;;37.40;33.80;;;;;27.87;46.48;100706.38;4915778;29;8856;-76
2021/06/21 21:10:19;;;;;;;;;44.20;36.80;;;;;27.96;46.44;100704.44;4915800;29;8860;-77
2021/06/21 21:12:48;;;;;;;;;46.25;39.00;;;;;27.87;46.87;100717.72;4917026;29;8907;-75
2021/06/21 21:15:43;;;;;;;;;47.75;40.75;;;;;27.96;46.20;100707.28;4905734;29;8856;-78
2021/06/21 21:18:39;;;;;;;;;34.40;31.80;;;;;27.82;46.75;100702.00;4906760;29;8856;-77
2021/06/21 21:21:35;;;;;;;;;23.80;23.00;;;;;27.85;47.38;100711.72;4919303;29;8856;-77
2021/06/21 21:24:22;;;;;;;;;12.40;11.00;;;;;27.76;47.32;100714.38;4920202;29;8954;-77
2021/06/21 21:27:18;;;;;;;;;11.00;11.00;;;;;27.67;47.71;100706.50;4919293;29;8875;-76
2021/06/21 21:30:15;;;;;;;;;14.00;14.00;;;;;27.64;47.89;100696.81;4919255;29;8898;-76
2021/06/21 21:33:10;;;;;;;;;43.00;37.00;;;;;27.59;48.13;100696.56;4918718;29;8874;-77
2021/06/21 21:36:06;;;;;;;;;52.25;43.75;;;;;27.60;48.57;100698.94;4907489;29;8832;-77
2021/06/21 21:39:04;;;;;;;;;63.00;49.00;;;;;27.50;47.99;100690.72;4906593;29;8956;-76
2021/06/21 21:41:59;;;;;;;;;56.00;46.50;;;;;27.50;48.02;100696.41;4906349;29;8864;-76
2021/06/21 21:44:55;;;;;;;;;55.75;46.50;;;;;27.50;47.75;100687.88;4906617;29;8880;-77
2021/06/21 21:47:58;;;;;;;;;41.75;36.75;;;;;27.46;47.45;100695.72;4918668;29;9075;-78
2021/06/21 21:50:54;;;;;;;;;42.40;35.60;;;;;27.65;47.49;100697.59;4918671;29;8900;-78
2021/06/21 21:53:49;;;;;;;;;38.40;33.60;;;;;27.59;47.13;100707.91;4918973;29;8944;-77
2021/06/21 21:56:45;;;;;;;;;30.80;27.60;;;;;27.51;48.47;100703.69;4918773;29;8979;-77
2021/06/21 21:59:41;;;;;;;;;14.80;14.60;;;;;27.51;47.53;100689.47;4918807;29;8851;-77
2021/06/21 22:02:37;;;;;;;;;23.00;22.40;;;;;27.59;47.46;100690.88;4918639;29;8848;-77
2021/06/21 22:05:33;;;;;;;;;17.60;17.40;;;;;27.43;47.31;100694.56;4906028;29;8849;-78
2021/06/21 22:08:07;;;;;;;;;21.00;20.60;;;;;27.51;47.20;100710.16;4919846;29;8856;-77
2021/06/21 22:11:02;;;;;;;;;34.00;31.60;;;;;27.34;47.51;100703.72;4919036;29;8872;-78
2021/06/21 22:13:58;;;;;;;;;31.60;30.40;;;;;27.45;47.53;100700.56;4918577;29;8856;-77
2021/06/21 22:16:54;;;;;;;;;35.40;32.20;;;;;27.37;47.36;100707.69;4918008;29;8852;-77
2021/06/21 22:19:49;;;;;;;;;39.00;34.50;;;;;27.39;47.52;100697.50;4918285;29;8931;-77
2021/06/21 22:22:45;;;;;;;;;50.50;42.50;;;;;27.42;47.97;100702.28;4918298;29;8888;-76
2021/06/21 22:25:14;;;;;;;;;52.25;43.00;;;;;27.29;47.82;100697.78;4902056;29;8942;-77
2021/06/21 22:28:10;;;;;;;;;54.00;44.50;;;;;27.34;47.78;100692.34;4917098;29;8864;-78
2021/06/21 22:31:06;;;;;;;;;58.75;48.75;;;;;27.25;48.29;100683.69;4918936;29;8860;-77
2021/06/21 22:34:02;;;;;;;;;57.00;47.25;;;;;27.48;49.51;100698.91;4918131;29;8990;-77
2021/06/21 22:36:57;;;;;;;;;68.67;56.33;;;;;27.20;47.53;100692.72;4917981;29;9630;-77
2021/06/21 22:39:53;;;;;;;;;79.00;75.50;;;;;27.18;48.08;100692.38;4905208;29;9001;-77
2021/06/21 22:42:49;;;;;;;;;71.50;61.00;;;;;27.23;48.50;100696.75;4918260;29;9909;-78
2021/06/21 22:45:44;;;;;;;;;83.00;81.50;;;;;27.32;48.16;100694.84;4916952;29;10666;-77
2021/06/21 22:48:13;;;;;;;;;105.50;101.50;;;;;27.23;48.16;100689.03;4918921;29;10459;-78
2021/06/21 22:51:09;;;;;;;;;101.75;98.25;;;;;27.19;47.31;100688.31;4917625;29;11686;-78
2021/06/21 22:53:50;;;;;;;;;84.00;81.75;;;;;27.21;47.53;100690.69;4918669;29;11407;-78
2021/06/21 22:56:46;;;;;;;;;83.50;79.25;;;;;27.10;47.03;100688.13;4904806;29;11322;-78
2021/06/21 22:59:41;;;;;;;;;91.50;90.50;;;;;27.32;47.04;100692.00;4918043;29;10236;-77
2021/06/21 23:02:37;;;;;;;;;89.25;87.00;;;;;27.13;47.02;100693.72;4917578;29;10854;-78
2021/06/21 23:05:33;;;;;;;;;106.00;103.50;;;;;27.26;46.87;100688.13;4917512;29;10769;-78
2021/06/21 23:08:28;;;;;;;;;103.75;100.00;;;;;27.14;47.04;100703.03;4916692;29;12406;-78
2021/06/21 23:11:24;;;;;;;;;105.75;102.00;;;;;27.18;47.05;100700.91;4916623;29;12480;-77
2021/06/21 23:14:19;;;;;;;;;95.25;92.00;;;;;27.27;47.42;100717.31;4916284;29;11660;-77
2021/06/21 23:17:15;;;;;;;;;74.00;69.25;;;;;27.19;47.68;100718.72;4916565;29;11435;-78
2021/06/21 23:20:13;;;;;;;;;78.25;74.25;;;;;27.14;47.80;100720.06;4917461;29;10222;-77
2021/06/21 23:23:09;;;;;;;;;78.00;72.25;;;;;27.10;48.13;100719.34;4917435;29;9729;-78
2021/06/21 23:26:04;;;;;;;;;79.75;79.25;;;;;27.16;47.70;100720.44;4916311;29;10205;-78
2021/06/21 23:29:00;;;;;;;;;85.50;81.25;;;;;27.13;48.38;100712.78;4904480;29;10197;-77
2021/06/21 23:31:55;;;;;;;;;85.50;84.50;;;;;27.03;47.76;100711.78;4917015;29;10497;-78
2021/06/21 23:34:51;;;;;;;;;123.25;120.50;;;;;27.00;47.47;100701.34;4916552;29;11304;-78
2021/06/21 23:37:48;;;;;;;;;112.75;109.50;;;;;27.02;47.45;100686.69;4915606;29;11747;-78
2021/06/21 23:40:44;;;;;;;;;108.00;104.50;;;;;27.03;47.15;100669.22;4904373;29;11733;-78
2021/06/21 23:43:14;;;;;;;;;89.75;84.25;;;;;27.17;47.05;100673.75;4916517;29;11725;-78
2021/06/21 23:46:10;;;;;;;;;78.75;72.25;;;;;27.18;47.27;100678.19;4916881;29;11320;-77
2021/06/21 23:49:05;;;;;;;;;66.00;54.00;;;;;27.12;46.74;100689.28;4916571;29;9908;-77
2021/06/21 23:52:01;;;;;;;;;59.00;48.25;;;;;26.94;46.76;100688.91;4899138;29;8894;-78
2021/06/21 23:54:59;;;;;;;;;73.33;65.67;;;;;27.02;47.78;100675.34;4897615;29;8933;-77
2021/06/21 23:57:55;;;;;;;;;74.25;67.50;;;;;26.85;47.26;100672.53;4891590;29;9129;-77
